Time;durP1;ratioP1;P1;durP2;ratioP2;P2;SDS_P1;SDS_P2;PMS_P1;PMS_P2;Temp;Humidity;BMP_temperature;BMP_pressure;BME280_temperature;BME280_humidity;BME280_pressure;Samples;Min_cycle;Max_cycle;Signal;HPM_P1;HPM_P2
2023/01/31 00:00:14;;;;;;;7.13;2.40;;;11.00;95.00;;;;;;10372188;28;20607;-86
2023/01/31 00:05:18;;;;;;;6.47;2.20;;;10.90;92.70;;;;;;10387208;28;20495;-86
2023/01/31 00:10:21;;;;;;;3.83;1.70;;;11.40;95.10;;;;;;10370311;28;20198;-86
2023/01/31 00:15:24;;;;;;;10.73;2.23;;;11.00;90.30;;;;;;10386645;28;20205;-85
2023/01/31 00:20:26;;;;;;;4.77;2.13;;;10.30;95.10;;;;;;10386464;28;20208;-86
2023/01/31 00:25:29;;;;;;;5.57;2.37;;;10.40;94.80;;;;;;10371187;28;20225;-85
2023/01/31 00:30:31;;;;;;;1.60;1.30;;;10.30;92.60;;;;;;10371295;28;20248;-86
2023/01/31 00:35:37;;;;;;;6.87;1.80;;;10.60;98.10;;;;;;10386337;28;20238;-86
2023/01/31 00:40:40;;;;;;;4.63;1.63;;;11.20;90.90;;;;;;10386556;28;20654;-86
2023/01/31 00:45:42;;;;;;;2.43;0.93;;;10.60;96.90;;;;;;10386069;28;20247;-85
2023/01/31 00:50:45;;;;;;;4.93;2.00;;;11.20;95.70;;;;;;10386280;28;20202;-85
2023/01/31 00:55:50;;;;;;;1.10;0.90;;;10.00;95.00;;;;;;10370723;28;20242;-86
2023/01/31 01:00:53;;;;;;;3.93;1.77;;;10.00;96.10;;;;;;10374360;28;20197;-86
2023/01/31 01:05:55;;;;;;;4.93;1.60;;;9.70;99.60;;;;;;10377141;28;20222;-86
2023/01/31 01:11:09;;;;;;;3.93;1.77;;;10.60;93.50;;;;;;10378270;28;20349;-86
2023/01/31 01:16:37;;;;;;;5.23;1.80;;;10.30;91.70;;;;;;10392583;28;20205;-86
2023/01/31 01:21:40;;;;;;;6.20;2.13;;;10.10;95.30;;;;;;10377863;28;20195;-85
2023/01/31 01:26:43;;;;;;;4.53;2.10;;;10.40;91.30;;;;;;10377507;28;20214;-86
2023/01/31 01:31:46;;;;;;;3.43;1.63;;;10.30;95.30;;;;;;10392548;28;20578;-86
2023/01/31 01:36:49;;;;;;;9.37;1.87;;;10.80;93.70;;;;;;10392580;28;20620;-86
2023/01/31 01:41:51;;;;;;;3.30;1.87;;;10.40;93.80;;;;;;10376790;28;20212;-86
2023/01/31 01:46:54;;;;;;;5.37;1.60;;;11.20;91.00;;;;;;10391661;28;20221;-86
2023/01/31 01:52:00;;;;;;;6.33;1.07;;;10.70;92.30;;;;;;10374878;28;20201;-86
2023/01/31 01:57:05;;;;;;;10.63;2.00;;;10.30;97.20;;;;;;10376430;28;20262;-86
2023/01/31 02:02:08;;;;;;;5.20;1.80;;;10.10;92.80;;;;;;10376277;28;20205;-85
2023/01/31 02:07:11;;;;;;;3.77;1.57;;;9.30;94.30;;;;;;10374561;28;20224;-86
2023/01/31 02:12:14;;;;;;;4.67;2.07;;;10.30;97.20;;;;;;10374211;28;20613;-86
2023/01/31 02:17:18;;;;;;;2.83;1.23;;;10.10;92.90;;;;;;10373986;28;20209;-86
2023/01/31 02:22:24;;;;;;;5.70;1.90;;;10.10;91.80;;;;;;10373947;28;20748;-86
2023/01/31 02:27:45;;;;;;;6.43;2.00;;;9.60;88.80;;;;;;10390232;28;20636;-86
2023/01/31 02:32:53;;;;;;;5.70;1.80;;;10.70;94.70;;;;;;10373439;28;20262;-86
2023/01/31 02:38:22;;;;;;;3.47;1.60;;;10.90;91.20;;;;;;10389800;28;20202;-86
2023/01/31 02:49:35;;;;;;;6.67;1.77;;;10.60;93.60;;;;;;10374108;28;20216;-86
2023/01/31 03:00:44;;;;;;;2.53;1.03;;;10.80;89.50;;;;;;10388977;28;20206;-86
2023/01/31 03:06:13;;;;;;;6.20;2.57;;;10.30;94.20;;;;;;10388959;28;20233;-86
2023/01/31 03:11:16;;;;;;;3.97;1.83;;;9.50;83.00;;;;;;10373507;28;20483;-86
2023/01/31 03:21:55;;;;;;;6.33;1.90;;;10.20;95.40;;;;;;10372651;28;20202;-86
2023/01/31 03:27:03;;;;;;;9.40;2.03;;;11.00;90.50;;;;;;10371643;28;20224;-86
2023/01/31 03:32:15;;;;;;;4.63;1.00;;;10.40;90.80;;;;;;10371122;28;20260;-86
2023/01/31 03:37:36;;;;;;;4.30;1.30;;;10.70;91.20;;;;;;10387763;28;20209;-86
2023/01/31 03:42:49;;;;;;;5.40;1.60;;;10.30;93.50;;;;;;10386158;28;20204;-86
2023/01/31 03:47:55;;;;;;;5.97;1.30;;;11.10;86.80;;;;;;10372026;28;20289;-86
2023/01/31 03:53:13;;;;;;;4.10;1.20;;;10.50;92.50;;;;;;10371407;28;20255;-86
2023/01/31 03:58:19;;;;;;;4.70;1.63;;;10.70;88.30;;;;;;10387084;28;20290;-86
2023/01/31 04:03:22;;;;;;;3.90;1.90;;;10.30;85.80;;;;;;10386771;28;20582;-86
2023/01/31 04:08:25;;;;;;;3.93;0.93;;;10.00;93.70;;;;;;10369981;28;20235;-86
2023/01/31 04:13:34;;;;;;;9.27;1.53;;;10.40;97.50;;;;;;10386776;28;20673;-86
2023/01/31 04:18:37;;;;;;;6.17;1.77;;;9.20;96.80;;;;;;10370075;28;20213;-86
2023/01/31 04:23:40;;;;;;;2.47;1.03;;;10.40;90.00;;;;;;10371446;28;20198;-86
2023/01/31 04:28:42;;;;;;;1.97;1.20;;;11.20;89.10;;;;;;10371376;28;20282;-86
2023/01/31 04:33:45;;;;;;;5.23;1.17;;;10.70;90.60;;;;;;10386602;28;20240;-86
2023/01/31 04:38:47;;;;;;;6.00;1.87;;;10.20;93.20;;;;;;10379341;28;20202;-86
2023/01/31 04:43:50;;;;;;;2.73;1.43;;;10.40;85.70;;;;;;10379121;28;20203;-86
2023/01/31 04:48:53;;;;;;;6.53;2.20;;;10.50;83.50;;;;;;10394022;28;20232;-87
2023/01/31 04:53:55;;;;;;;0.93;0.60;;;9.90;85.90;;;;;;10379181;28;20608;-86
2023/01/31 04:58:58;;;;;;;3.53;1.20;;;9.90;97.70;;;;;;10378501;28;20238;-86
2023/01/31 05:04:00;;;;;;;4.53;1.60;;;10.80;91.50;;;;;;10393243;28;20550;-86
2023/01/31 05:09:03;;;;;;;4.70;1.13;;;9.80;90.10;;;;;;10393065;28;20230;-86
2023/01/31 05:14:05;;;;;;;1.43;0.70;;;10.60;90.80;;;;;;10376591;28;20193;-86
2023/01/31 05:19:08;;;;;;;4.27;1.73;;;10.30;95.80;;;;;;10377699;28;20203;-86
2023/01/31 05:24:11;;;;;;;6.77;1.73;;;10.40;88.50;;;;;;10377626;28;20199;-86
2023/01/31 05:29:13;;;;;;;5.47;1.27;;;9.20;75.10;;;;;;10375838;28;20320;-86
2023/01/31 05:34:16;;;;;;;3.10;1.50;;;9.70;89.00;;;;;;10376850;28;20198;-86
2023/01/31 05:39:19;;;;;;;2.77;1.33;;;10.00;88.70;;;;;;10392334;28;20195;-86
2023/01/31 05:44:21;;;;;;;6.73;2.70;;;10.20;94.30;;;;;;10376650;28;20621;-86
2023/01/31 05:49:24;;;;;;;4.90;1.30;;;9.50;76.60;;;;;;10376369;28;20251;-86
2023/01/31 05:54:27;;;;;;;4.20;0.90;;;9.70;93.90;;;;;;10376349;28;20251;-86
2023/01/31 05:59:31;;;;;;;3.67;1.37;;;9.70;96.00;;;;;;10376097;28;20286;-86
2023/01/31 06:04:34;;;;;;;4.70;1.47;;;10.10;94.00;;;;;;10391110;28;20269;-86
2023/01/31 06:09:37;;;;;;;2.63;1.13;;;9.60;88.70;;;;;;10390166;28;20213;-86
2023/01/31 06:14:40;;;;;;;9.57;2.07;;;9.80;97.70;;;;;;10375641;28;20242;-85
2023/01/31 06:19:42;;;;;;;5.13;1.70;;;9.40;90.10;;;;;;10375117;28;20257;-86
2023/01/31 06:24:45;;;;;;;4.73;1.47;;;9.40;90.80;;;;;;10375241;28;20259;-86
2023/01/31 06:29:48;;;;;;;9.37;2.10;;;8.90;95.20;;;;;;10390134;28;20227;-86
2023/01/31 06:34:50;;;;;;;6.10;2.00;;;9.70;82.50;;;;;;10374756;28;20241;-86
2023/01/31 06:39:53;;;;;;;1.60;0.70;;;8.80;91.90;;;;;;10390311;28;20196;-86
2023/01/31 06:44:55;;;;;;;3.03;1.73;;;8.30;99.90;;;;;;10389863;28;20201;-87
2023/01/31 06:49:58;;;;;;;6.80;1.60;;;8.40;93.10;;;;;;10374518;28;20221;-86
2023/01/31 06:55:00;;;;;;;5.43;1.17;;;9.00;93.80;;;;;;10374379;28;20195;-86
2023/01/31 07:00:04;;;;;;;3.50;1.53;;;8.90;97.20;;;;;;10388446;28;20205;-86
2023/01/31 07:05:07;;;;;;;3.13;1.27;;;9.30;95.70;;;;;;10373853;28;20215;-86
2023/01/31 07:10:10;;;;;;;6.60;2.10;;;10.00;93.20;;;;;;10374065;28;20946;-86
2023/01/31 07:15:13;;;;;;;4.73;1.90;;;10.70;90.90;;;;;;10388653;28;20204;-86
2023/01/31 07:20:16;;;;;;;3.10;1.87;;;10.60;92.00;;;;;;10373380;28;20239;-86
2023/01/31 07:25:18;;;;;;;4.53;1.23;;;10.70;95.20;;;;;;10371660;28;20580;-86
2023/01/31 07:30:21;;;;;;;5.00;1.10;;;10.90;93.50;;;;;;10373086;28;20216;-86
2023/01/31 07:35:24;;;;;;;5.60;1.47;;;11.00;94.70;;;;;;10372781;28;20206;-86
2023/01/31 07:40:27;;;;;;;7.13;1.83;;;10.60;93.90;;;;;;10387927;28;20197;-86
2023/01/31 07:45:29;;;;;;;3.13;1.43;;;10.70;92.20;;;;;;10387663;28;20218;-86
2023/01/31 07:50:32;;;;;;;3.87;1.97;;;10.30;91.00;;;;;;10386754;28;20231;-86
2023/01/31 07:55:35;;;;;;;10.50;2.80;;;11.20;90.40;;;;;;10372124;28;20565;-86
2023/01/31 08:06:18;;;;;;;11.83;3.20;;;11.70;90.00;;;;;;10371727;28;20604;-85
2023/01/31 08:11:22;;;;;;;4.50;2.13;;;11.10;77.00;;;;;;10371709;28;20206;-86
2023/01/31 08:16:25;;;;;;;2.43;1.23;;;10.80;92.60;;;;;;10371677;28;20216;-86
2023/01/31 08:21:27;;;;;;;5.33;1.50;;;11.60;92.20;;;;;;10386818;28;20254;-87
2023/01/31 08:26:30;;;;;;;8.33;2.03;;;10.70;88.10;;;;;;10371488;28;20555;-86
2023/01/31 08:31:33;;;;;;;0.40;0.40;;;11.30;85.10;;;;;;10371573;28;20201;-86
2023/01/31 08:36:37;;;;;;;4.27;0.67;;;12.20;91.30;;;;;;10371736;28;20237;-86
2023/01/31 08:41:40;;;;;;;6.57;1.60;;;11.70;89.80;;;;;;10386475;28;20677;-86
2023/01/31 08:46:44;;;;;;;2.97;1.57;;;11.70;88.20;;;;;;10371215;28;20539;-86
2023/01/31 08:51:47;;;;;;;2.83;2.10;;;11.00;87.70;;;;;;10386312;28;20219;-86
2023/01/31 08:56:49;;;;;;;5.63;2.13;;;11.90;82.40;;;;;;10385977;28;20283;-86
2023/01/31 09:01:52;;;;;;;4.33;2.07;;;11.50;76.00;;;;;;10370445;28;20212;-86
2023/01/31 09:06:54;;;;;;;4.27;1.30;;;10.80;80.50;;;;;;10370330;28;20235;-87
2023/01/31 09:11:57;;;;;;;1.77;1.00;;;11.20;92.50;;;;;;10370474;28;20203;-86
2023/01/31 09:17:00;;;;;;;8.67;2.47;;;11.50;85.70;;;;;;10370181;28;20211;-86
2023/01/31 09:22:02;;;;;;;6.37;1.93;;;11.90;73.20;;;;;;10389108;28;20234;-86
2023/01/31 09:27:05;;;;;;;3.27;1.63;;;11.70;70.70;;;;;;10392482;28;20227;-86
2023/01/31 09:32:07;;;;;;;2.57;1.17;;;11.70;86.10;;;;;;10392597;28;20290;-86
2023/01/31 09:37:10;;;;;;;3.30;0.90;;;12.40;88.00;;;;;;10392606;28;20216;-86
2023/01/31 09:42:29;;;;;;;1.43;0.60;;;12.30;78.50;;;;;;10392414;28;20256;-86
2023/01/31 09:47:48;;;;;;;10.00;1.83;;;12.40;79.90;;;;;;10376693;28;20589;-86
2023/01/31 09:52:50;;;;;;;3.20;1.37;;;11.20;75.60;;;;;;10376921;28;20221;-86
2023/01/31 09:58:05;;;;;;;4.27;1.50;;;10.70;84.20;;;;;;10374843;28;20261;-86
2023/01/31 10:03:59;;;;;;;3.17;1.73;;;11.60;79.80;;;;;;10376292;28;20194;-86
2023/01/31 10:09:10;;;;;;;9.00;1.30;;;11.10;86.50;;;;;;10358687;28;20224;-86
2023/01/31 10:14:45;;;;;;;2.87;1.47;;;12.00;86.00;;;;;;10390805;28;20268;-86
2023/01/31 10:19:52;;;;;;;4.03;1.77;;;11.90;81.00;;;;;;10375271;28;20683;-86
2023/01/31 10:25:02;;;;;;;3.77;1.27;;;11.60;75.60;;;;;;10390831;28;20201;-86
2023/01/31 10:30:10;;;;;;;5.57;2.17;;;11.60;87.90;;;;;;10375432;28;20225;-86
2023/01/31 10:35:26;;;;;;;2.03;0.93;;;11.50;78.70;;;;;;10374144;28;20262;-86
2023/01/31 10:40:37;;;;;;;4.27;1.57;;;12.00;87.50;;;;;;10375442;28;20346;-86
2023/01/31 10:45:40;;;;;;;4.33;1.70;;;11.80;84.30;;;;;;10375022;28;20198;-86
2023/01/31 10:51:16;;;;;;;6.67;1.93;;;11.20;75.50;;;;;;10373011;28;20231;-86
2023/01/31 10:56:41;;;;;;;4.33;0.93;;;11.40;82.30;;;;;;10374240;28;20358;-86
2023/01/31 11:01:43;;;;;;;2.07;1.10;;;11.80;82.50;;;;;;10374024;28;20254;-86
2023/01/31 11:06:46;;;;;;;8.30;2.23;;;11.20;91.50;;;;;;10389031;28;20211;-86
2023/01/31 11:12:00;;;;;;;4.50;1.10;;;11.10;74.80;;;;;;10388748;28;20703;-86
2023/01/31 11:17:14;;;;;;;10.13;2.70;;;11.50;79.10;;;;;;10388724;28;20738;-86
2023/01/31 11:22:32;;;;;;;3.30;1.63;;;10.90;82.70;;;;;;10388381;28;20210;-86
2023/01/31 11:27:42;;;;;;;5.10;2.43;;;10.80;87.70;;;;;;10372107;28;20216;-86
2023/01/31 11:32:46;;;;;;;5.47;2.00;;;11.60;78.40;;;;;;10388131;28;20198;-86
2023/01/31 11:37:59;;;;;;;5.37;2.50;;;11.60;78.30;;;;;;10372916;28;20214;-86
2023/01/31 11:43:19;;;;;;;2.20;1.07;;;10.90;81.60;;;;;;10371557;28;20212;-86
2023/01/31 11:48:25;;;;;;;2.83;1.57;;;11.40;91.80;;;;;;10371032;28;20327;-86
2023/01/31 11:53:49;;;;;;;5.80;1.83;;;11.70;83.50;;;;;;10372373;28;20210;-87
2023/01/31 11:59:01;;;;;;;5.00;1.43;;;11.90;77.50;;;;;;10370265;28;20233;-86
2023/01/31 12:04:04;;;;;;;6.53;1.57;;;11.90;85.30;;;;;;10371890;28;20673;-86
2023/01/31 12:09:22;;;;;;;3.63;1.80;;;12.10;78.70;;;;;;10371915;28;20216;-86
2023/01/31 12:14:46;;;;;;;1.80;1.10;;;11.90;82.80;;;;;;10370896;28;20569;-86
2023/01/31 12:20:29;;;;;;;10.50;2.10;;;12.00;84.20;;;;;;10371644;28;20643;-86
2023/01/31 12:26:02;;;;;;;5.87;2.23;;;11.30;70.20;;;;;;10370640;28;20256;-86
2023/01/31 12:31:29;;;;;;;6.00;1.60;;;10.80;93.20;;;;;;10371317;28;20291;-86
2023/01/31 12:37:09;;;;;;;3.17;1.50;;;11.90;88.10;;;;;;10386508;28;20210;-87
2023/01/31 12:42:27;;;;;;;3.73;0.93;;;12.20;80.80;;;;;;10359610;28;20212;-86
2023/01/31 12:47:48;;;;;;;2.43;1.00;;;12.20;85.30;;;;;;10371055;28;20198;-86
2023/01/31 12:53:12;;;;;;;6.53;1.57;;;12.50;81.70;;;;;;10371260;28;20198;-86
2023/01/31 12:58:35;;;;;;;6.00;1.63;;;11.90;79.70;;;;;;10376686;28;20235;-86
2023/01/31 13:03:41;;;;;;;6.73;1.60;;;11.60;79.20;;;;;;10378769;28;20264;-86
2023/01/31 13:09:15;;;;;;;6.83;1.97;;;11.90;81.10;;;;;;10393594;28;20243;-86
2023/01/31 13:14:22;;;;;;;3.70;1.23;;;11.20;88.50;;;;;;10373565;28;20196;-86
2023/01/31 13:19:37;;;;;;;4.03;1.43;;;11.40;92.70;;;;;;10378138;28;20215;-86
2023/01/31 13:24:43;;;;;;;3.33;1.93;;;11.70;92.20;;;;;;10377936;28;20366;-86
2023/01/31 13:29:59;;;;;;;5.10;1.83;;;11.60;90.50;;;;;;10377891;28;20273;-86
2023/01/31 13:35:22;;;;;;;4.27;1.90;;;11.50;92.10;;;;;;10392578;28;20540;-86
2023/01/31 13:40:30;;;;;;;9.47;3.23;;;11.70;90.40;;;;;;10392155;28;20208;-86
2023/01/31 13:45:37;;;;;;;4.37;1.73;;;10.60;90.90;;;;;;10377148;28;20264;-87
2023/01/31 13:51:03;;;;;;;10.67;4.47;;;10.60;94.10;;;;;;10376818;28;20289;-86
2023/01/31 13:56:09;;;;;;;5.93;2.40;;;10.20;92.80;;;;;;10367957;28;20235;-86
2023/01/31 14:01:20;;;;;;;3.60;1.83;;;10.90;95.50;;;;;;10376494;28;20558;-86
2023/01/31 14:06:23;;;;;;;4.80;2.70;;;11.60;94.50;;;;;;10391101;28;20215;-86
2023/01/31 14:11:28;;;;;;;3.53;1.83;;;11.90;91.30;;;;;;10375701;28;20231;-86
2023/01/31 14:16:30;;;;;;;4.50;1.77;;;11.90;91.50;;;;;;10375844;28;20243;-86
2023/01/31 14:21:42;;;;;;;3.43;1.97;;;12.00;91.70;;;;;;10390997;28;20210;-86
2023/01/31 14:26:44;;;;;;;1.97;0.97;;;11.90;90.40;;;;;;10390991;28;20533;-86
2023/01/31 14:31:49;;;;;;;2.23;1.70;;;11.70;90.50;;;;;;10374656;28;20642;-86
2023/01/31 14:37:03;;;;;;;3.20;1.97;;;11.60;92.70;;;;;;10373451;28;20209;-86
2023/01/31 14:42:43;;;;;;;3.10;1.80;;;11.60;91.90;;;;;;10374938;28;20537;-86
2023/01/31 14:47:49;;;;;;;5.43;2.20;;;11.50;93.10;;;;;;10374223;28;20265;-85
2023/01/31 14:53:32;;;;;;;5.77;2.77;;;11.40;92.00;;;;;;10372844;28;20197;-86
2023/01/31 14:58:35;;;;;;;5.00;2.83;;;10.80;96.10;;;;;;10209108;29;20848;-86
2023/01/31 15:03:57;;;;;;;4.03;2.23;;;10.80;96.30;;;;;;10209295;29;20314;-86
2023/01/31 15:09:14;;;;;;;5.60;2.90;;;11.10;94.80;;;;;;10209409;29;20292;-86
2023/01/31 15:14:33;;;;;;;5.23;2.43;;;10.80;94.10;;;;;;10209082;29;20239;-86
2023/01/31 15:19:56;;;;;;;5.10;3.20;;;10.70;96.60;;;;;;10208308;29;20240;-86
2023/01/31 15:25:25;;;;;;;5.23;2.40;;;10.50;94.50;;;;;;10208560;29;20281;-86
2023/01/31 15:30:32;;;;;;;6.90;3.30;;;11.00;97.40;;;;;;10251439;28;20263;-86
2023/01/31 15:36:02;;;;;;;6.57;3.30;;;11.00;95.50;;;;;;10332228;28;20208;-86
2023/01/31 15:41:14;;;;;;;4.37;2.80;;;10.80;94.10;;;;;;10331098;28;20670;-86
2023/01/31 15:46:29;;;;;;;3.60;2.70;;;11.00;97.10;;;;;;10330849;28;20766;-86
2023/01/31 15:51:32;;;;;;;1.87;1.27;;;10.90;94.80;;;;;;10331725;28;20248;-86
2023/01/31 15:56:38;;;;;;;3.83;2.27;;;11.10;98.00;;;;;;10331546;28;20785;-86
2023/01/31 16:01:54;;;;;;;3.03;1.77;;;11.00;96.90;;;;;;10331855;28;20203;-86
2023/01/31 16:06:58;;;;;;;1.73;1.20;;;11.60;95.40;;;;;;10330177;28;20626;-86
2023/01/31 16:12:01;;;;;;;1.77;1.47;;;11.50;96.70;;;;;;10331411;28;20231;-86
2023/01/31 16:17:04;;;;;;;5.40;3.10;;;11.60;95.70;;;;;;10337131;28;20274;-86
2023/01/31 16:22:23;;;;;;;3.07;2.13;;;10.80;95.30;;;;;;10387115;28;20207;-86
2023/01/31 16:27:36;;;;;;;4.93;3.80;;;10.60;97.70;;;;;;10371766;28;20608;-86
2023/01/31 16:32:40;;;;;;;7.27;4.70;;;11.00;95.50;;;;;;10378212;28;20218;-86
2023/01/31 16:37:43;;;;;;;7.90;4.50;;;11.00;94.10;;;;;;10379231;28;20207;-86
2023/01/31 16:42:46;;;;;;;8.10;4.10;;;10.10;98.60;;;;;;10394595;28;20213;-86
2023/01/31 16:47:51;;;;;;;12.87;7.00;;;10.80;97.30;;;;;;10379139;28;20205;-86
2023/01/31 16:53:27;;;;;;;4.57;2.53;;;10.40;98.50;;;;;;10377787;28;20235;-86
2023/01/31 16:58:53;;;;;;;8.50;4.63;;;10.70;96.90;;;;;;10336341;28;20296;-86
2023/01/31 17:04:08;;;;;;;10.37;3.90;;;11.50;97.20;;;;;;10367057;28;20219;-85
2023/01/31 17:09:17;;;;;;;10.03;5.23;;;11.70;93.90;;;;;;10393617;28;20234;-85
2023/01/31 17:14:20;;;;;;;9.03;4.33;;;11.30;95.40;;;;;;10393242;28;20747;-85
2023/01/31 17:19:22;;;;;;;6.13;3.27;;;11.20;95.80;;;;;;10377768;28;20574;-85
2023/01/31 17:24:25;;;;;;;11.57;6.10;;;11.00;97.60;;;;;;10393077;28;20263;-85
2023/01/31 17:29:28;;;;;;;10.07;4.60;;;11.10;94.30;;;;;;10377833;28;20581;-85
2023/01/31 17:34:31;;;;;;;3.00;1.73;;;11.50;94.00;;;;;;10377387;28;20242;-85
2023/01/31 17:39:33;;;;;;;5.97;3.33;;;12.00;95.60;;;;;;10377563;28;20251;-85
2023/01/31 17:44:36;;;;;;;2.30;1.50;;;11.50;96.00;;;;;;10391560;28;20207;-85
2023/01/31 17:49:39;;;;;;;5.77;3.07;;;11.80;96.00;;;;;;10391710;28;20286;-85
2023/01/31 17:54:41;;;;;;;4.20;2.10;;;12.10;93.70;;;;;;10376942;28;20266;-85
2023/01/31 17:59:44;;;;;;;4.67;2.50;;;12.00;95.40;;;;;;10376261;28;20236;-85
2023/01/31 18:04:46;;;;;;;6.77;2.63;;;12.30;93.80;;;;;;10391040;28;20624;-85
2023/01/31 18:09:49;;;;;;;4.03;3.17;;;11.80;95.60;;;;;;10391225;28;20226;-85
2023/01/31 18:14:52;;;;;;;7.03;3.50;;;12.30;94.40;;;;;;10391579;28;20242;-85
2023/01/31 18:19:55;;;;;;;3.17;1.67;;;12.50;93.50;;;;;;10390749;28;20697;-85
2023/01/31 18:24:57;;;;;;;3.57;1.83;;;12.60;93.40;;;;;;10390877;28;20227;-85
2023/01/31 18:30:00;;;;;;;1.33;1.03;;;12.60;92.90;;;;;;10373845;28;20224;-85
2023/01/31 18:35:03;;;;;;;6.03;2.97;;;12.30;94.30;;;;;;10390296;28;20254;-85
2023/01/31 18:40:07;;;;;;;3.67;1.80;;;12.00;93.40;;;;;;10374472;28;20210;-85
2023/01/31 18:45:10;;;;;;;6.13;2.93;;;12.20;94.40;;;;;;10373588;28;20205;-85
2023/01/31 18:50:12;;;;;;;2.83;2.10;;;12.30;94.10;;;;;;10374491;28;20235;-85
2023/01/31 18:55:15;;;;;;;7.40;2.93;;;12.10;94.50;;;;;;10372892;28;20200;-85
2023/01/31 19:00:18;;;;;;;3.23;1.37;;;12.60;93.20;;;;;;10389441;28;20677;-85
2023/01/31 19:05:22;;;;;;;5.77;2.93;;;12.60;93.40;;;;;;10372669;28;20745;-85
2023/01/31 19:10:26;;;;;;;1.90;1.20;;;12.40;93.20;;;;;;10373426;28;20235;-85
2023/01/31 19:15:28;;;;;;;3.13;1.73;;;12.60;93.30;;;;;;10373502;28;20284;-85
2023/01/31 19:20:31;;;;;;;4.60;3.47;;;12.80;92.70;;;;;;10388549;28;20206;-85
2023/01/31 19:25:38;;;;;;;4.47;1.87;;;12.60;92.30;;;;;;10373043;28;20214;-85
2023/01/31 19:30:40;;;;;;;3.40;2.10;;;12.30;93.10;;;;;;10388150;28;20361;-85
2023/01/31 19:35:44;;;;;;;3.97;1.60;;;12.80;92.40;;;;;;10372878;28;20207;-85
2023/01/31 19:40:50;;;;;;;3.80;3.00;;;12.80;92.90;;;;;;10388085;28;20197;-85
2023/01/31 19:45:53;;;;;;;7.30;3.80;;;12.90;91.00;;;;;;10388062;28;20566;-85
2023/01/31 19:50:56;;;;;;;4.13;2.70;;;12.60;91.50;;;;;;10372285;28;20238;-84
2023/01/31 19:56:00;;;;;;;3.03;2.00;;;12.60;92.50;;;;;;10372293;28;20231;-85
2023/01/31 20:01:07;;;;;;;3.87;2.50;;;12.50;93.50;;;;;;10387782;28;20266;-85
2023/01/31 20:06:18;;;;;;;4.30;2.77;;;12.70;92.20;;;;;;10372080;28;20203;-85
2023/01/31 20:11:23;;;;;;;2.77;2.43;;;12.80;92.20;;;;;;10371944;28;20271;-85
2023/01/31 20:16:26;;;;;;;3.67;2.73;;;12.60;91.80;;;;;;10387024;28;20733;-85
2023/01/31 20:21:30;;;;;;;3.90;2.67;;;12.00;94.80;;;;;;10370023;28;20211;-85
2023/01/31 20:26:34;;;;;;;5.30;2.20;;;12.20;94.50;;;;;;10386650;28;20551;-85
2023/01/31 20:31:37;;;;;;;5.40;2.70;;;12.40;94.40;;;;;;10369830;28;20578;-85
2023/01/31 20:36:40;;;;;;;3.33;2.20;;;12.30;92.90;;;;;;10370255;28;20262;-85
2023/01/31 20:41:43;;;;;;;2.63;1.40;;;12.30;94.70;;;;;;10371328;28;20204;-85
2023/01/31 20:46:46;;;;;;;2.93;1.97;;;12.30;98.60;;;;;;10386547;28;20258;-85
2023/01/31 20:51:49;;;;;;;2.37;2.07;;;12.30;95.30;;;;;;10370899;28;20592;-85
2023/01/31 20:56:52;;;;;;;4.67;2.57;;;12.60;93.50;;;;;;10370960;28;20291;-85
2023/01/31 21:01:54;;;;;;;2.30;1.77;;;12.90;92.60;;;;;;10371086;28;20258;-85
2023/01/31 21:06:57;;;;;;;4.50;1.73;;;12.70;93.20;;;;;;10370625;28;20207;-85
2023/01/31 21:11:59;;;;;;;2.20;1.30;;;12.60;94.30;;;;;;10370865;28;20231;-86
2023/01/31 21:17:02;;;;;;;1.23;1.13;;;12.60;94.20;;;;;;10373169;28;20192;-86
2023/01/31 21:22:05;;;;;;;1.50;1.20;;;12.80;93.90;;;;;;10378088;28;20571;-85
2023/01/31 21:27:08;;;;;;;3.23;1.63;;;12.80;92.10;;;;;;10377795;28;20572;-85
2023/01/31 21:32:11;;;;;;;3.87;2.80;;;11.60;95.40;;;;;;10376729;28;20277;-84
2023/01/31 21:37:14;;;;;;;2.13;1.67;;;9.90;99.40;;;;;;10392300;28;20287;-85
2023/01/31 21:42:20;;;;;;;2.07;1.60;;;10.00;98.10;;;;;;10392538;28;20215;-86
2023/01/31 21:47:22;;;;;;;3.27;1.80;;;10.00;98.80;;;;;;10392102;28;20211;-85
2023/01/31 21:52:25;;;;;;;4.10;2.13;;;10.60;93.40;;;;;;10392075;28;20591;-85
2023/01/31 21:57:27;;;;;;;2.43;1.37;;;10.80;97.80;;;;;;10377019;28;20309;-84
2023/01/31 22:02:30;;;;;;;2.77;1.83;;;10.70;96.60;;;;;;10376554;28;20212;-85
2023/01/31 22:07:33;;;;;;;2.57;1.80;;;10.30;97.50;;;;;;10376546;28;20199;-85
2023/01/31 22:12:35;;;;;;;4.43;1.53;;;10.70;95.80;;;;;;10374785;28;20224;-85
2023/01/31 22:17:38;;;;;;;1.60;1.10;;;10.50;98.80;;;;;;10375681;28;20192;-85
2023/01/31 22:22:41;;;;;;;2.17;1.97;;;10.70;98.60;;;;;;10390972;28;20189;-85
2023/01/31 22:27:44;;;;;;;3.20;1.33;;;11.20;94.20;;;;;;10390411;28;20281;-85
2023/01/31 22:32:46;;;;;;;3.57;1.87;;;10.40;98.10;;;;;;10374878;28;20254;-85
2023/01/31 22:37:49;;;;;;;4.90;1.43;;;11.00;95.40;;;;;;10374916;28;20261;-85
2023/01/31 22:42:52;;;;;;;4.00;1.87;;;10.70;98.60;;;;;;10389849;28;20208;-85
2023/01/31 22:47:54;;;;;;;3.67;1.83;;;11.20;93.20;;;;;;10389476;28;20633;-85
2023/01/31 22:52:57;;;;;;;4.03;1.90;;;10.40;94.90;;;;;;10373029;28;20279;-85
2023/01/31 22:57:59;;;;;;;4.83;2.33;;;9.90;98.10;;;;;;10374146;28;20286;-85
2023/01/31 23:03:03;;;;;;;1.77;1.23;;;10.50;93.50;;;;;;10374020;28;20280;-85
2023/01/31 23:08:05;;;;;;;3.10;1.40;;;9.90;99.90;;;;;;10389167;28;20208;-85
2023/01/31 23:13:11;;;;;;;1.40;0.77;;;10.70;97.40;;;;;;10373793;28;20223;-85
2023/01/31 23:18:15;;;;;;;4.33;1.77;;;11.30;97.30;;;;;;10388288;28;20215;-85
2023/01/31 23:23:17;;;;;;;3.90;1.33;;;10.90;95.00;;;;;;10372252;28;20211;-85
2023/01/31 23:28:20;;;;;;;3.47;1.37;;;11.20;98.20;;;;;;10373207;28;20208;-85
2023/01/31 23:33:22;;;;;;;3.37;1.40;;;11.70;95.90;;;;;;10387614;28;20245;-85
2023/01/31 23:38:25;;;;;;;3.03;1.63;;;11.70;92.80;;;;;;10372751;28;20202;-85
2023/01/31 23:43:27;;;;;;;5.20;1.63;;;12.00;93.60;;;;;;10372695;28;20207;-85
2023/01/31 23:48:30;;;;;;;3.20;1.60;;;11.70;94.60;;;;;;10387002;28;20204;-85
2023/01/31 23:53:33;;;;;;;2.03;1.30;;;11.50;95.50;;;;;;10372452;28;20615;-85
2023/01/31 23:58:35;;;;;;;3.90;1.27;;;11.10;94.30;;;;;;10387141;28;20242;-85
